TimeCST,TemperatureF,Dew PointF,Humidity,Sea Level PressureIn,VisibilityMPH,Wind Direction,Wind SpeedMPH,Gust SpeedMPH,PrecipitationIn,Events,Conditions,WindDirDegrees,DateUTC
12:15 AM,39.2,32.0,75,30.40,9.0,NE,5.8,-,N/A,,Clear,40,2012-11-14 06:15:00
12:35 AM,39.2,32.0,75,30.41,10.0,Calm,Calm,-,N/A,,Clear,0,2012-11-14 06:35:00
12:55 AM,37.4,32.0,81,30.41,10.0,Calm,Calm,-,N/A,,Clear,0,2012-11-14 06:55:00
1:15 AM,37.4,32.0,81,30.41,8.0,Calm,Calm,-,N/A,,Clear,0,2012-11-14 07:15:00
1:35 AM,37.4,32.0,81,30.41,9.0,Calm,Calm,-,N/A,,Clear,0,2012-11-14 07:35:00
1:55 AM,37.4,32.0,81,30.42,10.0,Calm,Calm,-,N/A,,Clear,0,2012-11-14 07:55:00
2:15 AM,37.4,32.0,81,30.42,10.0,Calm,Calm,-,N/A,,Clear,0,2012-11-14 08:15:00
2:35 AM,37.4,32.0,81,30.41,8.0,Calm,Calm,-,N/A,,Clear,0,2012-11-14 08:35:00
2:55 AM,35.6,32.0,87,30.41,10.0,Calm,Calm,-,N/A,,Clear,0,2012-11-14 08:55:00
3:15 AM,35.6,32.0,87,30.41,10.0,Calm,Calm,-,N/A,,Clear,0,2012-11-14 09:15:00
3:55 AM,35.6,32.0,87,30.41,10.0,Calm,Calm,-,N/A,,Clear,0,2012-11-14 09:55:00
4:15 AM,37.4,32.0,81,30.41,10.0,Calm,Calm,-,N/A,,Clear,0,2012-11-14 10:15:00
4:35 AM,37.4,32.0,81,30.41,10.0,Calm,Calm,-,N/A,,Clear,0,2012-11-14 10:35:00
4:55 AM,37.4,32.0,81,30.42,10.0,NW,5.8,-,N/A,,Mostly Cloudy,320,2012-11-14 10:55:00
5:15 AM,37.4,32.0,81,30.41,10.0,NNE,4.6,-,N/A,,Mostly Cloudy,20,2012-11-14 11:15:00
5:35 AM,37.4,32.0,81,30.42,10.0,Calm,Calm,-,N/A,,Mostly Cloudy,0,2012-11-14 11:35:00
5:55 AM,37.4,32.0,81,30.42,10.0,Calm,Calm,-,N/A,,Mostly Cloudy,0,2012-11-14 11:55:00
6:15 AM,37.4,32.0,81,30.42,10.0,Calm,Calm,-,N/A,,Partly Cloudy,0,2012-11-14 12:15:00
6:35 AM,37.4,32.0,81,30.43,10.0,Calm,Calm,-,N/A,,Clear,0,2012-11-14 12:35:00
6:55 AM,37.4,32.0,81,30.43,10.0,Calm,Calm,-,N/A,,Clear,0,2012-11-14 12:55:00
7:15 AM,37.4,32.0,81,30.43,10.0,Calm,Calm,-,N/A,,Clear,0,2012-11-14 13:15:00
7:35 AM,37.4,32.0,81,30.44,10.0,North,3.5,-,N/A,,Clear,360,2012-11-14 13:35:00
7:55 AM,39.2,32.0,75,30.44,10.0,North,4.6,-,N/A,,Clear,360,2012-11-14 13:55:00
8:15 AM,41.0,33.8,76,30.44,10.0,North,4.6,-,N/A,,Clear,10,2012-11-14 14:15:00
8:35 AM,42.8,32.0,66,30.45,10.0,North,4.6,-,N/A,,Clear,10,2012-11-14 14:35:00
8:55 AM,44.6,32.0,61,30.45,10.0,NNE,4.6,-,N/A,,Clear,30,2012-11-14 14:55:00
9:15 AM,46.4,32.0,57,30.45,10.0,NNE,5.8,-,N/A,,Clear,20,2012-11-14 15:15:00
9:35 AM,48.2,32.0,54,30.45,5.0,NNE,5.8,-,N/A,,Haze,30,2012-11-14 15:35:00
9:55 AM,50.0,30.2,47,30.45,5.0,ENE,3.5,-,N/A,,Haze,60,2012-11-14 15:55:00
10:15 AM,51.8,28.4,41,30.44,10.0,NE,4.6,-,N/A,,Clear,40,2012-11-14 16:15:00
10:35 AM,53.6,26.6,35,30.44,5.0,NNE,6.9,-,N/A,,Haze,20,2012-11-14 16:35:00
10:55 AM,53.6,26.6,35,30.43,5.0,NNE,5.8,-,N/A,,Haze,30,2012-11-14 16:55:00
11:15 AM,53.6,26.6,35,30.43,10.0,North,5.8,-,N/A,,Clear,350,2012-11-14 17:15:00
11:35 AM,55.4,26.6,33,30.42,10.0,North,4.6,-,N/A,,Clear,350,2012-11-14 17:35:00
11:55 AM,55.4,26.6,33,30.41,10.0,North,5.8,-,N/A,,Clear,10,2012-11-14 17:55:00
12:15 PM,55.4,24.8,31,30.40,10.0,NNW,6.9,-,N/A,,Clear,340,2012-11-14 18:15:00
12:55 PM,57.2,26.6,31,30.38,10.0,NNE,8.1,-,N/A,,Clear,30,2012-11-14 18:55:00
1:15 PM,57.2,24.8,29,30.37,10.0,North,6.9,-,N/A,,Clear,350,2012-11-14 19:15:00
1:35 PM,57.2,24.8,29,30.37,10.0,North,4.6,-,N/A,,Clear,350,2012-11-14 19:35:00
1:55 PM,57.2,26.6,31,30.36,10.0,NNE,6.9,-,N/A,,Clear,30,2012-11-14 19:55:00
2:15 PM,57.2,26.6,31,30.35,10.0,NW,5.8,-,N/A,,Clear,320,2012-11-14 20:15:00
2:35 PM,57.2,26.6,31,30.35,10.0,NNW,4.6,-,N/A,,Clear,340,2012-11-14 20:35:00
2:55 PM,57.2,26.6,31,30.34,10.0,NNE,6.9,-,N/A,,Clear,20,2012-11-14 20:55:00
3:15 PM,57.2,26.6,31,30.34,10.0,NE,6.9,-,N/A,,Clear,40,2012-11-14 21:15:00
3:35 PM,57.2,26.6,31,30.34,10.0,North,4.6,-,N/A,,Clear,10,2012-11-14 21:35:00
3:55 PM,57.2,26.6,31,30.34,10.0,NE,5.8,-,N/A,,Clear,40,2012-11-14 21:55:00
4:15 PM,55.4,28.4,36,30.34,10.0,NNE,4.6,-,N/A,,Clear,30,2012-11-14 22:15:00
4:35 PM,53.6,28.4,38,30.34,10.0,NE,3.5,-,N/A,,Clear,40,2012-11-14 22:35:00
4:55 PM,51.8,32.0,47,30.34,10.0,Calm,Calm,-,N/A,,Clear,0,2012-11-14 22:55:00
5:15 PM,48.2,33.8,58,30.34,10.0,Calm,Calm,-,N/A,,Clear,0,2012-11-14 23:15:00
5:35 PM,46.4,33.8,62,30.34,10.0,Calm,Calm,-,N/A,,Clear,0,2012-11-14 23:35:00
5:55 PM,42.8,35.6,76,30.34,10.0,Calm,Calm,-,N/A,,Clear,0,2012-11-14 23:55:00
6:15 PM,41.0,35.6,81,30.34,10.0,Calm,Calm,-,N/A,,Clear,0,2012-11-15 00:15:00
6:35 PM,39.2,35.6,87,30.34,5.0,Calm,Calm,-,N/A,,Haze,0,2012-11-15 00:35:00
6:55 PM,39.2,33.8,81,30.34,7.0,Calm,Calm,-,N/A,,Clear,0,2012-11-15 00:55:00
7:15 PM,37.4,33.8,87,30.34,7.0,Calm,Calm,-,N/A,,Clear,0,2012-11-15 01:15:00
7:35 PM,37.4,32.0,81,30.34,9.0,Calm,Calm,-,N/A,,Clear,0,2012-11-15 01:35:00
7:55 PM,35.6,32.0,87,30.34,9.0,Calm,Calm,-,N/A,,Clear,0,2012-11-15 01:55:00
8:15 PM,35.6,32.0,87,30.35,10.0,Calm,Calm,-,N/A,,Clear,0,2012-11-15 02:15:00
8:35 PM,35.6,33.8,93,30.35,8.0,Calm,Calm,-,N/A,,Clear,0,2012-11-15 02:35:00
8:55 PM,35.6,32.0,87,30.35,9.0,Calm,Calm,-,N/A,,Clear,0,2012-11-15 02:55:00
9:15 PM,33.8,32.0,93,30.36,10.0,Calm,Calm,-,N/A,,Clear,0,2012-11-15 03:15:00
9:35 PM,33.8,32.0,93,30.35,10.0,Calm,Calm,-,N/A,,Clear,0,2012-11-15 03:35:00
9:55 PM,32.0,32.0,100,30.35,9.0,Calm,Calm,-,N/A,,Clear,0,2012-11-15 03:55:00
10:15 PM,32.0,32.0,100,30.35,10.0,Calm,Calm,-,N/A,,Clear,0,2012-11-15 04:15:00
10:35 PM,32.0,32.0,100,30.35,10.0,Calm,Calm,-,N/A,,Clear,0,2012-11-15 04:35:00
10:55 PM,32.0,30.2,93,30.34,8.0,Calm,Calm,-,N/A,,Clear,0,2012-11-15 04:55:00
11:15 PM,32.0,30.2,93,30.35,6.0,Calm,Calm,-,N/A,,Clear,0,2012-11-15 05:15:00
11:35 PM,32.0,28.4,87,30.35,8.0,Calm,Calm,-,N/A,,Clear,0,2012-11-15 05:35:00
11:55 PM,32.0,28.4,87,30.34,8.0,Calm,Calm,-,N/A,,Clear,0,2012-11-15 05:55:00